sensor_id;sensor_type;location;lat;lon;timestamp;P1;durP1;ratioP1;P2;durP2;ratioP2
15913;SDS011;8055;51.930;8.840;2023-09-07T00:01:53;11.70;;;5.28;;
15913;SDS011;8055;51.930;8.840;2023-09-07T00:04:19;9.55;;;6.38;;
15913;SDS011;8055;51.930;8.840;2023-09-07T00:06:47;9.00;;;6.30;;
15913;SDS011;8055;51.930;8.840;2023-09-07T00:09:15;11.52;;;5.78;;
15913;SDS011;8055;51.930;8.840;2023-09-07T00:11:44;8.30;;;6.60;;
15913;SDS011;8055;51.930;8.840;2023-09-07T00:14:10;10.65;;;6.22;;
15913;SDS011;8055;51.930;8.840;2023-09-07T00:16:35;11.25;;;6.55;;
15913;SDS011;8055;51.930;8.840;2023-09-07T00:19:03;11.32;;;6.45;;
15913;SDS011;8055;51.930;8.840;2023-09-07T00:21:29;9.13;;;6.80;;
15913;SDS011;8055;51.930;8.840;2023-09-07T00:23:54;8.48;;;6.28;;
15913;SDS011;8055;51.930;8.840;2023-09-07T00:26:23;8.25;;;5.53;;
15913;SDS011;8055;51.930;8.840;2023-09-07T00:28:48;9.77;;;6.00;;
15913;SDS011;8055;51.930;8.840;2023-09-07T00:31:14;10.65;;;5.97;;
15913;SDS011;8055;51.930;8.840;2023-09-07T00:33:39;6.97;;;6.15;;
15913;SDS011;8055;51.930;8.840;2023-09-07T00:36:04;7.90;;;5.63;;
15913;SDS011;8055;51.930;8.840;2023-09-07T00:38:30;8.10;;;5.93;;
15913;SDS011;8055;51.930;8.840;2023-09-07T00:40:55;10.18;;;6.10;;
15913;SDS011;8055;51.930;8.840;2023-09-07T00:43:21;9.88;;;6.18;;
15913;SDS011;8055;51.930;8.840;2023-09-07T00:45:46;10.80;;;6.25;;
15913;SDS011;8055;51.930;8.840;2023-09-07T00:48:12;13.07;;;5.82;;
15913;SDS011;8055;51.930;8.840;2023-09-07T00:50:38;8.45;;;5.88;;
15913;SDS011;8055;51.930;8.840;2023-09-07T00:53:04;7.38;;;5.60;;
15913;SDS011;8055;51.930;8.840;2023-09-07T00:55:32;9.05;;;5.95;;
15913;SDS011;8055;51.930;8.840;2023-09-07T00:57:59;8.73;;;6.32;;
15913;SDS011;8055;51.930;8.840;2023-09-07T01:00:26;6.50;;;5.90;;
15913;SDS011;8055;51.930;8.840;2023-09-07T01:02:51;7.95;;;5.80;;
15913;SDS011;8055;51.930;8.840;2023-09-07T01:05:16;13.48;;;6.25;;
15913;SDS011;8055;51.930;8.840;2023-09-07T01:07:43;8.30;;;6.18;;
15913;SDS011;8055;51.930;8.840;2023-09-07T01:10:12;8.00;;;6.43;;
15913;SDS011;8055;51.930;8.840;2023-09-07T01:12:39;8.65;;;5.85;;
15913;SDS011;8055;51.930;8.840;2023-09-07T01:15:05;8.38;;;6.70;;
15913;SDS011;8055;51.930;8.840;2023-09-07T01:17:31;11.90;;;6.25;;
15913;SDS011;8055;51.930;8.840;2023-09-07T01:19:58;9.32;;;5.85;;
15913;SDS011;8055;51.930;8.840;2023-09-07T01:22:30;11.63;;;6.05;;
15913;SDS011;8055;51.930;8.840;2023-09-07T01:24:56;7.63;;;5.90;;
15913;SDS011;8055;51.930;8.840;2023-09-07T01:27:23;9.43;;;6.78;;
15913;SDS011;8055;51.930;8.840;2023-09-07T01:29:49;6.85;;;5.93;;
15913;SDS011;8055;51.930;8.840;2023-09-07T01:32:15;7.88;;;6.63;;
15913;SDS011;8055;51.930;8.840;2023-09-07T01:34:41;10.05;;;6.68;;
15913;SDS011;8055;51.930;8.840;2023-09-07T01:37:06;9.63;;;7.25;;
15913;SDS011;8055;51.930;8.840;2023-09-07T01:39:32;8.65;;;6.20;;
15913;SDS011;8055;51.930;8.840;2023-09-07T01:41:57;8.75;;;6.13;;
15913;SDS011;8055;51.930;8.840;2023-09-07T01:44:22;8.70;;;6.50;;
15913;SDS011;8055;51.930;8.840;2023-09-07T01:46:48;7.45;;;6.50;;
15913;SDS011;8055;51.930;8.840;2023-09-07T01:49:13;9.60;;;6.15;;
15913;SDS011;8055;51.930;8.840;2023-09-07T01:51:38;7.20;;;6.30;;
15913;SDS011;8055;51.930;8.840;2023-09-07T01:54:04;8.00;;;6.80;;
15913;SDS011;8055;51.930;8.840;2023-09-07T01:56:30;7.53;;;6.70;;
15913;SDS011;8055;51.930;8.840;2023-09-07T01:58:55;9.90;;;6.40;;
15913;SDS011;8055;51.930;8.840;2023-09-07T02:01:24;9.50;;;6.63;;
15913;SDS011;8055;51.930;8.840;2023-09-07T02:03:51;10.02;;;7.00;;
15913;SDS011;8055;51.930;8.840;2023-09-07T02:06:16;8.82;;;6.20;;
15913;SDS011;8055;51.930;8.840;2023-09-07T02:08:42;8.48;;;7.05;;
15913;SDS011;8055;51.930;8.840;2023-09-07T02:11:08;8.23;;;6.57;;
15913;SDS011;8055;51.930;8.840;2023-09-07T02:13:33;9.38;;;6.13;;
15913;SDS011;8055;51.930;8.840;2023-09-07T02:15:58;9.02;;;6.55;;
15913;SDS011;8055;51.930;8.840;2023-09-07T02:18:28;9.00;;;6.18;;
15913;SDS011;8055;51.930;8.840;2023-09-07T02:20:54;8.73;;;6.45;;
15913;SDS011;8055;51.930;8.840;2023-09-07T02:23:19;7.40;;;5.95;;
15913;SDS011;8055;51.930;8.840;2023-09-07T02:25:44;7.32;;;6.30;;
15913;SDS011;8055;51.930;8.840;2023-09-07T02:28:10;9.70;;;6.30;;
15913;SDS011;8055;51.930;8.840;2023-09-07T02:30:35;7.05;;;5.60;;
15913;SDS011;8055;51.930;8.840;2023-09-07T02:33:00;9.13;;;6.18;;
15913;SDS011;8055;51.930;8.840;2023-09-07T02:35:25;7.60;;;6.13;;
15913;SDS011;8055;51.930;8.840;2023-09-07T02:37:51;7.65;;;6.03;;
15913;SDS011;8055;51.930;8.840;2023-09-07T02:40:16;9.63;;;6.50;;
15913;SDS011;8055;51.930;8.840;2023-09-07T02:42:42;11.73;;;6.35;;
15913;SDS011;8055;51.930;8.840;2023-09-07T02:45:10;8.00;;;6.10;;
15913;SDS011;8055;51.930;8.840;2023-09-07T02:47:36;8.43;;;6.10;;
15913;SDS011;8055;51.930;8.840;2023-09-07T02:50:02;8.32;;;6.38;;
15913;SDS011;8055;51.930;8.840;2023-09-07T02:52:27;7.35;;;6.22;;
15913;SDS011;8055;51.930;8.840;2023-09-07T02:54:53;9.15;;;5.93;;
15913;SDS011;8055;51.930;8.840;2023-09-07T02:57:18;12.50;;;6.20;;
15913;SDS011;8055;51.930;8.840;2023-09-07T02:59:43;9.57;;;6.63;;
15913;SDS011;8055;51.930;8.840;2023-09-07T03:02:09;10.60;;;6.40;;
15913;SDS011;8055;51.930;8.840;2023-09-07T03:04:34;9.65;;;6.20;;
15913;SDS011;8055;51.930;8.840;2023-09-07T03:07:00;11.82;;;6.50;;
15913;SDS011;8055;51.930;8.840;2023-09-07T03:09:27;7.95;;;6.28;;
15913;SDS011;8055;51.930;8.840;2023-09-07T03:11:52;8.85;;;6.43;;
15913;SDS011;8055;51.930;8.840;2023-09-07T03:14:18;10.18;;;5.53;;
15913;SDS011;8055;51.930;8.840;2023-09-07T03:16:43;6.47;;;5.57;;
15913;SDS011;8055;51.930;8.840;2023-09-07T03:19:08;9.50;;;6.30;;
15913;SDS011;8055;51.930;8.840;2023-09-07T03:21:34;10.45;;;5.95;;
15913;SDS011;8055;51.930;8.840;2023-09-07T03:23:59;8.05;;;6.03;;
15913;SDS011;8055;51.930;8.840;2023-09-07T03:26:24;7.72;;;5.45;;
15913;SDS011;8055;51.930;8.840;2023-09-07T03:28:50;9.50;;;5.93;;
15913;SDS011;8055;51.930;8.840;2023-09-07T03:31:16;7.93;;;6.10;;
15913;SDS011;8055;51.930;8.840;2023-09-07T03:33:41;7.80;;;6.28;;
15913;SDS011;8055;51.930;8.840;2023-09-07T03:36:06;7.05;;;5.45;;
15913;SDS011;8055;51.930;8.840;2023-09-07T03:38:34;7.15;;;5.65;;
15913;SDS011;8055;51.930;8.840;2023-09-07T03:40:59;7.80;;;5.68;;
15913;SDS011;8055;51.930;8.840;2023-09-07T03:43:25;6.90;;;5.47;;
15913;SDS011;8055;51.930;8.840;2023-09-07T03:45:50;9.75;;;5.72;;
15913;SDS011;8055;51.930;8.840;2023-09-07T03:48:15;6.63;;;5.43;;
15913;SDS011;8055;51.930;8.840;2023-09-07T03:50:41;8.35;;;5.55;;
15913;SDS011;8055;51.930;8.840;2023-09-07T03:53:06;10.13;;;5.85;;
15913;SDS011;8055;51.930;8.840;2023-09-07T03:55:39;7.93;;;5.95;;
15913;SDS011;8055;51.930;8.840;2023-09-07T03:58:09;9.82;;;5.68;;
15913;SDS011;8055;51.930;8.840;2023-09-07T04:00:38;7.57;;;6.28;;
15913;SDS011;8055;51.930;8.840;2023-09-07T04:03:04;7.65;;;6.00;;
15913;SDS011;8055;51.930;8.840;2023-09-07T04:05:30;7.88;;;6.40;;
15913;SDS011;8055;51.930;8.840;2023-09-07T04:07:56;10.80;;;6.22;;
15913;SDS011;8055;51.930;8.840;2023-09-07T04:10:22;8.73;;;6.18;;
15913;SDS011;8055;51.930;8.840;2023-09-07T04:12:47;8.77;;;7.07;;
15913;SDS011;8055;51.930;8.840;2023-09-07T04:15:13;8.68;;;6.32;;
15913;SDS011;8055;51.930;8.840;2023-09-07T04:17:38;10.85;;;6.82;;
15913;SDS011;8055;51.930;8.840;2023-09-07T04:20:06;8.35;;;6.90;;
15913;SDS011;8055;51.930;8.840;2023-09-07T04:22:36;10.65;;;7.18;;
15913;SDS011;8055;51.930;8.840;2023-09-07T04:25:02;8.85;;;7.43;;
15913;SDS011;8055;51.930;8.840;2023-09-07T04:27:27;11.27;;;7.00;;
15913;SDS011;8055;51.930;8.840;2023-09-07T04:29:53;11.20;;;7.25;;
15913;SDS011;8055;51.930;8.840;2023-09-07T04:32:18;12.00;;;7.63;;
15913;SDS011;8055;51.930;8.840;2023-09-07T04:34:44;9.05;;;7.68;;
15913;SDS011;8055;51.930;8.840;2023-09-07T04:37:09;11.57;;;7.60;;
15913;SDS011;8055;51.930;8.840;2023-09-07T04:39:34;13.23;;;8.60;;
15913;SDS011;8055;51.930;8.840;2023-09-07T04:42:00;12.40;;;8.45;;
15913;SDS011;8055;51.930;8.840;2023-09-07T04:44:26;12.40;;;8.30;;
15913;SDS011;8055;51.930;8.840;2023-09-07T04:46:54;10.10;;;8.32;;
15913;SDS011;8055;51.930;8.840;2023-09-07T04:49:20;9.27;;;8.20;;
15913;SDS011;8055;51.930;8.840;2023-09-07T04:51:46;11.52;;;9.18;;
15913;SDS011;8055;51.930;8.840;2023-09-07T04:54:12;12.75;;;8.45;;
15913;SDS011;8055;51.930;8.840;2023-09-07T04:56:38;9.50;;;8.50;;
15913;SDS011;8055;51.930;8.840;2023-09-07T04:59:03;11.35;;;8.30;;
15913;SDS011;8055;51.930;8.840;2023-09-07T05:01:29;13.05;;;9.07;;
15913;SDS011;8055;51.930;8.840;2023-09-07T05:03:54;12.95;;;8.98;;
15913;SDS011;8055;51.930;8.840;2023-09-07T05:06:20;13.82;;;9.40;;
15913;SDS011;8055;51.930;8.840;2023-09-07T05:08:48;15.90;;;9.18;;
15913;SDS011;8055;51.930;8.840;2023-09-07T05:11:13;13.05;;;8.77;;
15913;SDS011;8055;51.930;8.840;2023-09-07T05:13:38;13.13;;;9.10;;
15913;SDS011;8055;51.930;8.840;2023-09-07T05:16:04;10.25;;;7.85;;
15913;SDS011;8055;51.930;8.840;2023-09-07T05:18:30;12.02;;;9.10;;
15913;SDS011;8055;51.930;8.840;2023-09-07T05:20:55;14.25;;;9.75;;
15913;SDS011;8055;51.930;8.840;2023-09-07T05:23:21;13.48;;;9.80;;
15913;SDS011;8055;51.930;8.840;2023-09-07T05:25:48;14.82;;;9.45;;
15913;SDS011;8055;51.930;8.840;2023-09-07T05:28:15;12.77;;;9.40;;
15913;SDS011;8055;51.930;8.840;2023-09-07T05:30:41;16.52;;;10.18;;
15913;SDS011;8055;51.930;8.840;2023-09-07T05:33:09;12.13;;;9.77;;
15913;SDS011;8055;51.930;8.840;2023-09-07T05:35:35;14.93;;;9.75;;
15913;SDS011;8055;51.930;8.840;2023-09-07T05:38:00;11.57;;;9.00;;
15913;SDS011;8055;51.930;8.840;2023-09-07T05:40:25;12.00;;;8.65;;
15913;SDS011;8055;51.930;8.840;2023-09-07T05:42:51;10.63;;;8.50;;
15913;SDS011;8055;51.930;8.840;2023-09-07T05:45:16;9.57;;;8.18;;
15913;SDS011;8055;51.930;8.840;2023-09-07T05:47:41;11.65;;;8.90;;
15913;SDS011;8055;51.930;8.840;2023-09-07T05:50:07;10.50;;;7.80;;
15913;SDS011;8055;51.930;8.840;2023-09-07T05:52:33;10.30;;;7.95;;
15913;SDS011;8055;51.930;8.840;2023-09-07T05:54:59;9.32;;;7.70;;
15913;SDS011;8055;51.930;8.840;2023-09-07T05:57:24;9.57;;;7.43;;
15913;SDS011;8055;51.930;8.840;2023-09-07T05:59:50;11.52;;;7.80;;
15913;SDS011;8055;51.930;8.840;2023-09-07T06:02:15;9.68;;;7.30;;
15913;SDS011;8055;51.930;8.840;2023-09-07T06:04:41;12.27;;;7.18;;
15913;SDS011;8055;51.930;8.840;2023-09-07T06:07:06;7.90;;;6.60;;
15913;SDS011;8055;51.930;8.840;2023-09-07T06:09:32;7.57;;;6.43;;
15913;SDS011;8055;51.930;8.840;2023-09-07T06:11:57;13.57;;;6.85;;
15913;SDS011;8055;51.930;8.840;2023-09-07T06:14:22;8.90;;;6.95;;
15913;SDS011;8055;51.930;8.840;2023-09-07T06:16:48;8.90;;;6.53;;
15913;SDS011;8055;51.930;8.840;2023-09-07T06:19:13;11.35;;;6.13;;
15913;SDS011;8055;51.930;8.840;2023-09-07T06:21:38;10.95;;;6.50;;
15913;SDS011;8055;51.930;8.840;2023-09-07T06:24:04;11.13;;;6.15;;
15913;SDS011;8055;51.930;8.840;2023-09-07T06:26:31;8.75;;;6.32;;
15913;SDS011;8055;51.930;8.840;2023-09-07T06:28:56;12.68;;;7.43;;
15913;SDS011;8055;51.930;8.840;2023-09-07T06:31:22;14.18;;;7.03;;
15913;SDS011;8055;51.930;8.840;2023-09-07T06:33:47;12.15;;;6.75;;
15913;SDS011;8055;51.930;8.840;2023-09-07T06:36:13;8.95;;;6.85;;
15913;SDS011;8055;51.930;8.840;2023-09-07T06:38:38;10.75;;;7.03;;
15913;SDS011;8055;51.930;8.840;2023-09-07T06:41:04;13.63;;;7.00;;
15913;SDS011;8055;51.930;8.840;2023-09-07T06:43:30;11.43;;;7.10;;
15913;SDS011;8055;51.930;8.840;2023-09-07T06:46:01;16.00;;;7.95;;
15913;SDS011;8055;51.930;8.840;2023-09-07T06:48:28;8.50;;;6.03;;
15913;SDS011;8055;51.930;8.840;2023-09-07T06:50:53;11.57;;;6.40;;
15913;SDS011;8055;51.930;8.840;2023-09-07T06:53:18;12.23;;;6.72;;
15913;SDS011;8055;51.930;8.840;2023-09-07T06:55:44;9.55;;;6.80;;
15913;SDS011;8055;51.930;8.840;2023-09-07T06:58:09;9.60;;;7.00;;
15913;SDS011;8055;51.930;8.840;2023-09-07T07:00:34;10.27;;;6.20;;
15913;SDS011;8055;51.930;8.840;2023-09-07T07:03:00;10.95;;;6.50;;
15913;SDS011;8055;51.930;8.840;2023-09-07T07:05:25;9.75;;;6.57;;
15913;SDS011;8055;51.930;8.840;2023-09-07T07:07:53;8.77;;;5.85;;
15913;SDS011;8055;51.930;8.840;2023-09-07T07:10:18;8.77;;;6.03;;
15913;SDS011;8055;51.930;8.840;2023-09-07T07:12:44;9.90;;;6.75;;
15913;SDS011;8055;51.930;8.840;2023-09-07T07:15:09;10.15;;;6.25;;
15913;SDS011;8055;51.930;8.840;2023-09-07T07:17:36;7.43;;;5.60;;
15913;SDS011;8055;51.930;8.840;2023-09-07T07:20:02;8.00;;;5.65;;
15913;SDS011;8055;51.930;8.840;2023-09-07T07:22:27;7.75;;;5.40;;
15913;SDS011;8055;51.930;8.840;2023-09-07T07:24:52;7.60;;;5.82;;
15913;SDS011;8055;51.930;8.840;2023-09-07T07:27:18;8.93;;;6.15;;
15913;SDS011;8055;51.930;8.840;2023-09-07T07:29:43;9.40;;;5.80;;
15913;SDS011;8055;51.930;8.840;2023-09-07T07:32:09;10.27;;;5.57;;
15913;SDS011;8055;51.930;8.840;2023-09-07T07:34:34;8.48;;;6.03;;
15913;SDS011;8055;51.930;8.840;2023-09-07T07:37:00;8.90;;;5.40;;
15913;SDS011;8055;51.930;8.840;2023-09-07T07:39:25;12.95;;;5.60;;
15913;SDS011;8055;51.930;8.840;2023-09-07T07:41:51;12.48;;;5.53;;
15913;SDS011;8055;51.930;8.840;2023-09-07T07:44:16;9.90;;;5.30;;
15913;SDS011;8055;51.930;8.840;2023-09-07T07:46:41;9.05;;;4.35;;
15913;SDS011;8055;51.930;8.840;2023-09-07T07:49:07;8.27;;;5.18;;
15913;SDS011;8055;51.930;8.840;2023-09-07T07:51:32;6.13;;;4.50;;
15913;SDS011;8055;51.930;8.840;2023-09-07T07:53:57;5.45;;;4.43;;
15913;SDS011;8055;51.930;8.840;2023-09-07T07:56:23;7.32;;;4.25;;
15913;SDS011;8055;51.930;8.840;2023-09-07T07:58:48;5.80;;;4.72;;
15913;SDS011;8055;51.930;8.840;2023-09-07T08:01:18;8.68;;;4.22;;
15913;SDS011;8055;51.930;8.840;2023-09-07T08:03:45;8.02;;;4.68;;
15913;SDS011;8055;51.930;8.840;2023-09-07T08:06:10;7.47;;;4.28;;
15913;SDS011;8055;51.930;8.840;2023-09-07T08:08:36;7.10;;;4.75;;
15913;SDS011;8055;51.930;8.840;2023-09-07T08:11:02;5.57;;;3.90;;
15913;SDS011;8055;51.930;8.840;2023-09-07T08:13:31;7.32;;;4.13;;
15913;SDS011;8055;51.930;8.840;2023-09-07T08:15:59;6.88;;;4.28;;
15913;SDS011;8055;51.930;8.840;2023-09-07T08:18:27;8.68;;;4.75;;
15913;SDS011;8055;51.930;8.840;2023-09-07T08:20:53;9.48;;;4.20;;
15913;SDS011;8055;51.930;8.840;2023-09-07T08:23:20;5.10;;;3.90;;
15913;SDS011;8055;51.930;8.840;2023-09-07T08:25:47;7.50;;;4.15;;
15913;SDS011;8055;51.930;8.840;2023-09-07T08:28:13;5.68;;;4.43;;
15913;SDS011;8055;51.930;8.840;2023-09-07T08:30:39;5.60;;;4.63;;
15913;SDS011;8055;51.930;8.840;2023-09-07T08:33:04;6.03;;;4.10;;
15913;SDS011;8055;51.930;8.840;2023-09-07T08:35:31;7.47;;;4.68;;
15913;SDS011;8055;51.930;8.840;2023-09-07T08:38:00;5.80;;;4.28;;
15913;SDS011;8055;51.930;8.840;2023-09-07T08:40:28;11.13;;;4.35;;
15913;SDS011;8055;51.930;8.840;2023-09-07T08:42:54;6.82;;;3.65;;
15913;SDS011;8055;51.930;8.840;2023-09-07T08:45:21;7.60;;;4.57;;
15913;SDS011;8055;51.930;8.840;2023-09-07T08:47:47;6.18;;;4.57;;
15913;SDS011;8055;51.930;8.840;2023-09-07T08:50:15;7.18;;;4.43;;
15913;SDS011;8055;51.930;8.840;2023-09-07T08:52:42;5.50;;;4.53;;
15913;SDS011;8055;51.930;8.840;2023-09-07T08:55:10;7.32;;;4.38;;
15913;SDS011;8055;51.930;8.840;2023-09-07T08:57:37;11.10;;;4.70;;
15913;SDS011;8055;51.930;8.840;2023-09-07T09:00:03;7.75;;;4.55;;
15913;SDS011;8055;51.930;8.840;2023-09-07T09:02:33;6.07;;;3.90;;
15913;SDS011;8055;51.930;8.840;2023-09-07T09:04:59;6.45;;;3.85;;
15913;SDS011;8055;51.930;8.840;2023-09-07T09:07:24;7.40;;;4.28;;
15913;SDS011;8055;51.930;8.840;2023-09-07T09:09:50;5.45;;;3.80;;
15913;SDS011;8055;51.930;8.840;2023-09-07T09:12:16;6.72;;;4.00;;
15913;SDS011;8055;51.930;8.840;2023-09-07T09:14:42;4.32;;;3.92;;
15913;SDS011;8055;51.930;8.840;2023-09-07T09:17:12;7.40;;;4.00;;
15913;SDS011;8055;51.930;8.840;2023-09-07T09:19:39;5.32;;;3.67;;
15913;SDS011;8055;51.930;8.840;2023-09-07T09:22:04;5.65;;;4.00;;
15913;SDS011;8055;51.930;8.840;2023-09-07T09:24:34;7.05;;;4.22;;
15913;SDS011;8055;51.930;8.840;2023-09-07T09:27:00;6.22;;;3.80;;
15913;SDS011;8055;51.930;8.840;2023-09-07T09:29:25;6.97;;;3.75;;
15913;SDS011;8055;51.930;8.840;2023-09-07T09:31:52;5.15;;;4.00;;
15913;SDS011;8055;51.930;8.840;2023-09-07T09:34:18;7.30;;;3.88;;
15913;SDS011;8055;51.930;8.840;2023-09-07T09:36:44;5.57;;;3.83;;
15913;SDS011;8055;51.930;8.840;2023-09-07T09:39:10;6.28;;;4.47;;
15913;SDS011;8055;51.930;8.840;2023-09-07T09:41:35;5.80;;;3.95;;
15913;SDS011;8055;51.930;8.840;2023-09-07T09:44:03;7.53;;;3.83;;
15913;SDS011;8055;51.930;8.840;2023-09-07T09:46:31;4.85;;;3.70;;
15913;SDS011;8055;51.930;8.840;2023-09-07T09:48:57;5.65;;;3.60;;
15913;SDS011;8055;51.930;8.840;2023-09-07T09:51:22;8.38;;;3.70;;
15913;SDS011;8055;51.930;8.840;2023-09-07T09:53:49;5.28;;;4.18;;
15913;SDS011;8055;51.930;8.840;2023-09-07T09:56:15;6.88;;;3.70;;
15913;SDS011;8055;51.930;8.840;2023-09-07T09:58:42;9.57;;;4.50;;
15913;SDS011;8055;51.930;8.840;2023-09-07T10:01:07;5.45;;;4.32;;
15913;SDS011;8055;51.930;8.840;2023-09-07T10:03:37;5.15;;;3.90;;
15913;SDS011;8055;51.930;8.840;2023-09-07T10:06:18;6.47;;;4.22;;
15913;SDS011;8055;51.930;8.840;2023-09-07T10:09:19;7.80;;;3.95;;
15913;SDS011;8055;51.930;8.840;2023-09-07T10:11:42;7.32;;;4.18;;
15913;SDS011;8055;51.930;8.840;2023-09-07T10:14:07;6.28;;;3.67;;
15913;SDS011;8055;51.930;8.840;2023-09-07T10:16:42;6.82;;;3.53;;
15913;SDS011;8055;51.930;8.840;2023-09-07T10:19:22;6.78;;;3.70;;
15913;SDS011;8055;51.930;8.840;2023-09-07T10:21:48;4.65;;;4.05;;
15913;SDS011;8055;51.930;8.840;2023-09-07T10:24:32;6.15;;;4.00;;
15913;SDS011;8055;51.930;8.840;2023-09-07T10:27:01;5.05;;;3.70;;
15913;SDS011;8055;51.930;8.840;2023-09-07T10:29:39;4.82;;;3.63;;
15913;SDS011;8055;51.930;8.840;2023-09-07T10:32:15;7.38;;;3.65;;
15913;SDS011;8055;51.930;8.840;2023-09-07T10:34:41;4.63;;;3.72;;
15913;SDS011;8055;51.930;8.840;2023-09-07T10:37:10;5.65;;;4.22;;
15913;SDS011;8055;51.930;8.840;2023-09-07T10:39:38;6.70;;;4.10;;
15913;SDS011;8055;51.930;8.840;2023-09-07T10:42:05;6.85;;;4.53;;
15913;SDS011;8055;51.930;8.840;2023-09-07T10:44:30;7.65;;;4.00;;
15913;SDS011;8055;51.930;8.840;2023-09-07T10:46:58;5.18;;;3.40;;
15913;SDS011;8055;51.930;8.840;2023-09-07T10:49:25;8.00;;;3.45;;
15913;SDS011;8055;51.930;8.840;2023-09-07T10:51:50;6.75;;;3.70;;
15913;SDS011;8055;51.930;8.840;2023-09-07T10:54:23;4.55;;;3.45;;
15913;SDS011;8055;51.930;8.840;2023-09-07T10:56:49;4.63;;;3.33;;
15913;SDS011;8055;51.930;8.840;2023-09-07T10:59:16;4.65;;;3.30;;
15913;SDS011;8055;51.930;8.840;2023-09-07T11:01:45;5.22;;;3.75;;
15913;SDS011;8055;51.930;8.840;2023-09-07T11:04:11;4.18;;;3.55;;
15913;SDS011;8055;51.930;8.840;2023-09-07T11:06:37;4.45;;;3.70;;
15913;SDS011;8055;51.930;8.840;2023-09-07T11:09:04;6.97;;;4.03;;
15913;SDS011;8055;51.930;8.840;2023-09-07T11:11:33;7.60;;;4.03;;
15913;SDS011;8055;51.930;8.840;2023-09-07T11:14:01;5.30;;;3.80;;
15913;SDS011;8055;51.930;8.840;2023-09-07T11:16:28;5.38;;;3.42;;
15913;SDS011;8055;51.930;8.840;2023-09-07T11:18:54;4.65;;;3.60;;
15913;SDS011;8055;51.930;8.840;2023-09-07T11:21:20;5.07;;;3.47;;
15913;SDS011;8055;51.930;8.840;2023-09-07T11:23:46;3.83;;;3.15;;
15913;SDS011;8055;51.930;8.840;2023-09-07T11:26:11;5.00;;;3.60;;
15913;SDS011;8055;51.930;8.840;2023-09-07T11:28:37;4.70;;;3.58;;
15913;SDS011;8055;51.930;8.840;2023-09-07T11:31:03;5.38;;;3.72;;
15913;SDS011;8055;51.930;8.840;2023-09-07T11:33:31;4.13;;;3.50;;
15913;SDS011;8055;51.930;8.840;2023-09-07T11:35:57;4.88;;;3.25;;
15913;SDS011;8055;51.930;8.840;2023-09-07T11:38:22;5.95;;;3.60;;
15913;SDS011;8055;51.930;8.840;2023-09-07T11:40:48;4.10;;;3.17;;
15913;SDS011;8055;51.930;8.840;2023-09-07T11:43:14;7.22;;;3.28;;
15913;SDS011;8055;51.930;8.840;2023-09-07T11:45:40;4.78;;;3.30;;
15913;SDS011;8055;51.930;8.840;2023-09-07T11:48:07;3.47;;;3.10;;
15913;SDS011;8055;51.930;8.840;2023-09-07T11:50:35;7.82;;;3.50;;
15913;SDS011;8055;51.930;8.840;2023-09-07T11:53:01;5.13;;;3.33;;
15913;SDS011;8055;51.930;8.840;2023-09-07T11:55:26;3.80;;;3.22;;
15913;SDS011;8055;51.930;8.840;2023-09-07T11:57:52;5.28;;;3.25;;
15913;SDS011;8055;51.930;8.840;2023-09-07T12:00:18;4.30;;;3.72;;
15913;SDS011;8055;51.930;8.840;2023-09-07T12:02:44;6.13;;;3.15;;
15913;SDS011;8055;51.930;8.840;2023-09-07T12:05:09;4.63;;;3.53;;
15913;SDS011;8055;51.930;8.840;2023-09-07T12:07:36;5.60;;;3.15;;
15913;SDS011;8055;51.930;8.840;2023-09-07T12:10:02;5.57;;;3.38;;
15913;SDS011;8055;51.930;8.840;2023-09-07T12:12:27;5.80;;;3.92;;
15913;SDS011;8055;51.930;8.840;2023-09-07T12:14:53;5.00;;;3.58;;
15913;SDS011;8055;51.930;8.840;2023-09-07T12:17:18;7.22;;;3.67;;
15913;SDS011;8055;51.930;8.840;2023-09-07T12:19:45;5.55;;;3.20;;
15913;SDS011;8055;51.930;8.840;2023-09-07T12:22:11;5.18;;;3.30;;
15913;SDS011;8055;51.930;8.840;2023-09-07T12:24:37;4.30;;;3.33;;
15913;SDS011;8055;51.930;8.840;2023-09-07T12:27:02;4.00;;;3.58;;
15913;SDS011;8055;51.930;8.840;2023-09-07T12:29:28;4.25;;;3.53;;
15913;SDS011;8055;51.930;8.840;2023-09-07T12:31:54;4.80;;;3.50;;
15913;SDS011;8055;51.930;8.840;2023-09-07T12:34:20;5.75;;;3.90;;
15913;SDS011;8055;51.930;8.840;2023-09-07T12:36:45;3.30;;;2.97;;
15913;SDS011;8055;51.930;8.840;2023-09-07T12:39:10;8.05;;;3.47;;
15913;SDS011;8055;51.930;8.840;2023-09-07T12:41:38;6.10;;;3.50;;
15913;SDS011;8055;51.930;8.840;2023-09-07T12:44:04;7.03;;;3.63;;
15913;SDS011;8055;51.930;8.840;2023-09-07T12:46:29;6.07;;;3.55;;
15913;SDS011;8055;51.930;8.840;2023-09-07T12:48:55;5.38;;;3.45;;
15913;SDS011;8055;51.930;8.840;2023-09-07T12:51:20;4.57;;;3.55;;
15913;SDS011;8055;51.930;8.840;2023-09-07T12:53:46;4.18;;;3.10;;
15913;SDS011;8055;51.930;8.840;2023-09-07T12:56:11;6.05;;;3.20;;
15913;SDS011;8055;51.930;8.840;2023-09-07T12:58:37;10.45;;;3.65;;
15913;SDS011;8055;51.930;8.840;2023-09-07T13:01:03;4.65;;;3.30;;
15913;SDS011;8055;51.930;8.840;2023-09-07T13:03:29;4.30;;;3.45;;
15913;SDS011;8055;51.930;8.840;2023-09-07T13:05:54;7.45;;;3.70;;
15913;SDS011;8055;51.930;8.840;2023-09-07T13:08:19;3.42;;;3.10;;
15913;SDS011;8055;51.930;8.840;2023-09-07T13:10:45;4.30;;;3.55;;
15913;SDS011;8055;51.930;8.840;2023-09-07T13:13:10;3.78;;;2.97;;
15913;SDS011;8055;51.930;8.840;2023-09-07T13:15:36;3.60;;;3.22;;
15913;SDS011;8055;51.930;8.840;2023-09-07T13:18:01;4.60;;;3.00;;
15913;SDS011;8055;51.930;8.840;2023-09-07T13:20:26;3.35;;;3.05;;
15913;SDS011;8055;51.930;8.840;2023-09-07T13:22:52;5.32;;;3.38;;
15913;SDS011;8055;51.930;8.840;2023-09-07T13:25:17;6.45;;;3.55;;
15913;SDS011;8055;51.930;8.840;2023-09-07T13:27:42;6.95;;;3.35;;
15913;SDS011;8055;51.930;8.840;2023-09-07T13:30:08;5.95;;;3.08;;
15913;SDS011;8055;51.930;8.840;2023-09-07T13:32:34;6.68;;;3.33;;
15913;SDS011;8055;51.930;8.840;2023-09-07T13:35:00;5.22;;;3.00;;
15913;SDS011;8055;51.930;8.840;2023-09-07T13:37:25;5.78;;;3.10;;
15913;SDS011;8055;51.930;8.840;2023-09-07T13:39:51;5.40;;;3.15;;
15913;SDS011;8055;51.930;8.840;2023-09-07T13:42:16;7.38;;;3.08;;
15913;SDS011;8055;51.930;8.840;2023-09-07T13:44:42;4.82;;;3.20;;
15913;SDS011;8055;51.930;8.840;2023-09-07T13:47:07;4.22;;;3.15;;
15913;SDS011;8055;51.930;8.840;2023-09-07T13:49:35;7.20;;;3.25;;
15913;SDS011;8055;51.930;8.840;2023-09-07T13:52:00;4.97;;;3.17;;
15913;SDS011;8055;51.930;8.840;2023-09-07T13:54:26;4.43;;;2.83;;
15913;SDS011;8055;51.930;8.840;2023-09-07T13:56:51;4.53;;;3.45;;
15913;SDS011;8055;51.930;8.840;2023-09-07T13:59:16;5.47;;;3.13;;
15913;SDS011;8055;51.930;8.840;2023-09-07T14:01:42;3.38;;;3.05;;
15913;SDS011;8055;51.930;8.840;2023-09-07T14:04:07;5.88;;;3.35;;
15913;SDS011;8055;51.930;8.840;2023-09-07T14:06:32;3.92;;;3.03;;
15913;SDS011;8055;51.930;8.840;2023-09-07T14:08:58;5.05;;;3.53;;
15913;SDS011;8055;51.930;8.840;2023-09-07T14:11:23;8.02;;;3.33;;
15913;SDS011;8055;51.930;8.840;2023-09-07T14:13:49;5.30;;;3.20;;
15913;SDS011;8055;51.930;8.840;2023-09-07T14:16:19;4.00;;;3.40;;
15913;SDS011;8055;51.930;8.840;2023-09-07T14:18:45;5.18;;;3.17;;
15913;SDS011;8055;51.930;8.840;2023-09-07T14:21:14;5.47;;;3.28;;
15913;SDS011;8055;51.930;8.840;2023-09-07T14:23:40;11.85;;;3.60;;
15913;SDS011;8055;51.930;8.840;2023-09-07T14:26:07;5.10;;;3.20;;
15913;SDS011;8055;51.930;8.840;2023-09-07T14:28:33;5.60;;;3.40;;
15913;SDS011;8055;51.930;8.840;2023-09-07T14:30:59;4.00;;;3.28;;
15913;SDS011;8055;51.930;8.840;2023-09-07T14:33:28;13.75;;;4.35;;
15913;SDS011;8055;51.930;8.840;2023-09-07T14:35:53;4.43;;;3.85;;
15913;SDS011;8055;51.930;8.840;2023-09-07T14:38:20;4.20;;;3.20;;
15913;SDS011;8055;51.930;8.840;2023-09-07T14:40:46;5.53;;;3.45;;
15913;SDS011;8055;51.930;8.840;2023-09-07T14:43:13;7.50;;;3.70;;
15913;SDS011;8055;51.930;8.840;2023-09-07T14:45:39;4.68;;;3.47;;
15913;SDS011;8055;51.930;8.840;2023-09-07T14:48:04;5.68;;;3.28;;
15913;SDS011;8055;51.930;8.840;2023-09-07T14:50:30;6.72;;;4.60;;
15913;SDS011;8055;51.930;8.840;2023-09-07T14:52:55;5.75;;;4.03;;